Time;durP1;ratioP1;P1;durP2;ratioP2;P2;SDS_P1;SDS_P2;PMS_P1;PMS_P2;Temp;Humidity;BMP_temperature;BMP_pressure;BME280_temperature;BME280_humidity;BME280_pressure;Samples;Min_cycle;Max_cycle;Signal;HPM_P1;HPM_P2
2021/01/19 00:00:53;;;;;;;18.70;13.23;;;;;;;3.27;100.00;100714.75;5206978;28;587587;-79
2021/01/19 00:03:23;;;;;;;21.73;13.23;;;;;;;3.23;100.00;100719.06;5227347;28;20111;-79
2021/01/19 00:05:54;;;;;;;23.42;12.90;;;;;;;3.21;100.00;100709.63;5227526;28;20035;-79
2021/01/19 00:08:24;;;;;;;25.65;13.68;;;;;;;3.15;100.00;100715.66;5227527;28;20031;-78
2021/01/19 00:10:54;;;;;;;21.15;13.30;;;;;;;3.14;100.00;100707.91;5209093;28;20040;-78
2021/01/19 00:13:24;;;;;;;21.73;13.13;;;;;;;3.14;100.00;100716.53;5226151;28;20212;-78
2021/01/19 00:15:55;;;;;;;22.50;14.45;;;;;;;3.13;100.00;100711.34;5226897;28;20025;-79
2021/01/19 00:18:25;;;;;;;20.20;13.13;;;;;;;3.13;100.00;100711.34;5227643;28;20032;-80
2021/01/19 00:20:55;;;;;;;20.08;13.82;;;;;;;3.16;100.00;100713.94;5227419;28;20032;-80
2021/01/19 00:23:26;;;;;;;20.70;13.68;;;;;;;3.20;100.00;100703.59;5224942;28;20051;-79
2021/01/19 00:25:56;;;;;;;25.08;13.63;;;;;;;3.36;100.00;100699.22;5226331;28;20085;-76
2021/01/19 00:28:26;;;;;;;21.52;13.13;;;;;;;3.33;100.00;100694.94;5227098;28;20032;-79
2021/01/19 00:30:56;;;;;;;21.60;13.77;;;;;;;3.39;100.00;100686.28;5226839;28;20035;-78
2021/01/19 00:33:27;;;;;;;21.90;13.98;;;;;;;3.41;100.00;100685.44;5228413;28;20021;-80
2021/01/19 00:35:58;;;;;;;22.58;14.27;;;;;;;3.39;100.00;100688.88;5227454;28;20048;-80
2021/01/19 00:38:28;;;;;;;22.20;13.60;;;;;;;3.39;100.00;100684.56;5227124;28;20040;-81
2021/01/19 00:40:58;;;;;;;24.58;14.43;;;;;;;3.31;100.00;100681.16;5226877;28;20021;-79
2021/01/19 00:43:28;;;;;;;23.42;14.52;;;;;;;3.37;100.00;100673.38;5227161;28;20072;-78
2021/01/19 00:45:59;;;;;;;23.00;14.23;;;;;;;3.46;100.00;100668.19;5227403;28;20025;-77
2021/01/19 00:48:29;;;;;;;25.80;14.50;;;;;;;3.44;100.00;100672.50;5226778;28;20112;-78
2021/01/19 00:50:59;;;;;;;21.55;14.27;;;;;;;3.46;100.00;100669.88;5226829;28;20029;-78
2021/01/19 00:53:29;;;;;;;23.80;14.20;;;;;;;3.43;100.00;100660.44;5208374;28;20047;-78
2021/01/19 00:56:00;;;;;;;19.45;13.93;;;;;;;3.45;100.00;100663.88;5227491;28;20028;-78
2021/01/19 00:58:30;;;;;;;21.08;12.93;;;;;;;3.49;100.00;100660.41;5227367;28;20029;-79
2021/01/19 01:01:00;;;;;;;19.00;12.57;;;;;;;3.54;100.00;100663.81;5230265;28;20067;-80
2021/01/19 01:03:33;;;;;;;16.67;11.27;;;;;;;3.59;100.00;100668.09;5230932;28;20078;-78
2021/01/19 01:06:04;;;;;;;16.60;11.45;;;;;;;3.55;100.00;100662.09;5223867;28;20039;-79
2021/01/19 01:08:34;;;;;;;17.15;11.20;;;;;;;3.58;100.00;100658.63;5223100;28;20017;-79
2021/01/19 01:11:04;;;;;;;21.35;12.57;;;;;;;3.51;100.00;100658.66;5224528;28;20071;-80
2021/01/19 01:13:35;;;;;;;16.65;11.20;;;;;;;3.80;100.00;100651.59;5223952;28;20035;-80
2021/01/19 01:16:10;;;;;;;16.92;10.68;;;;;;;3.72;100.00;100653.34;5223683;28;20638;-77
2021/01/19 01:18:41;;;;;;;16.75;10.30;;;;;;;3.73;100.00;100644.72;5223089;28;20049;-79
2021/01/19 01:21:12;;;;;;;18.00;9.73;;;;;;;3.76;100.00;100640.41;5205984;28;20477;-78
2021/01/19 01:23:42;;;;;;;16.33;9.70;;;;;;;3.61;100.00;100640.50;5224205;28;20162;-77
2021/01/19 01:26:15;;;;;;;17.75;10.32;;;;;;;3.60;100.00;100630.19;5225142;28;20028;-79
2021/01/19 01:28:46;;;;;;;17.13;10.10;;;;;;;3.60;100.00;100637.97;5223618;28;20025;-79
2021/01/19 01:31:20;;;;;;;15.15;10.05;;;;;;;3.61;100.00;100626.75;5206480;28;20029;-79
2021/01/19 01:33:50;;;;;;;14.48;10.70;;;;;;;3.60;100.00;100623.28;5223209;28;20115;-79
2021/01/19 01:36:21;;;;;;;14.00;10.20;;;;;;;3.65;100.00;100616.34;5224038;28;20112;-79
2021/01/19 01:38:51;;;;;;;16.40;10.20;;;;;;;3.64;100.00;100616.38;5224314;28;20036;-79
2021/01/19 01:41:22;;;;;;;16.75;10.43;;;;;;;3.67;100.00;100625.00;5222826;28;20028;-79
2021/01/19 01:43:53;;;;;;;18.48;10.75;;;;;;;3.65;100.00;100618.09;5223861;28;20027;-78
2021/01/19 01:46:23;;;;;;;14.85;10.25;;;;;;;3.74;100.00;100610.25;5223862;28;20029;-80
2021/01/19 01:48:54;;;;;;;16.88;10.10;;;;;;;3.73;100.00;100609.44;5224253;28;20024;-80
2021/01/19 01:51:25;;;;;;;17.33;10.70;;;;;;;3.76;100.00;100604.22;5222789;28;20426;-79
2021/01/19 01:53:56;;;;;;;15.68;10.65;;;;;;;3.59;100.00;100608.66;5221922;28;20027;-79
2021/01/19 01:56:27;;;;;;;14.43;9.65;;;;;;;3.63;100.00;100600.00;5223630;28;20037;-79
2021/01/19 01:58:58;;;;;;;17.15;10.50;;;;;;;3.65;100.00;100595.69;5222852;28;20041;-80
2021/01/19 02:01:28;;;;;;;13.82;9.73;;;;;;;3.66;100.00;100601.72;5224237;28;20032;-79
2021/01/19 02:03:58;;;;;;;14.30;9.75;;;;;;;3.71;100.00;100599.97;5223204;28;20021;-80
2021/01/19 02:06:30;;;;;;;13.63;9.60;;;;;;;3.65;100.00;100582.78;5224185;28;20025;-80
2021/01/19 02:09:07;;;;;;;15.60;9.52;;;;;;;3.65;100.00;100587.94;5224196;28;20515;-79
2021/01/19 02:11:46;;;;;;;15.93;9.60;;;;;;;3.55;100.00;100588.03;5218654;28;20107;-81
2021/01/19 02:14:45;;;;;;;17.20;9.75;;;;;;;3.59;100.00;100584.56;5222926;28;20483;-80
2021/01/19 02:17:43;;;;;;;12.40;9.23;;;;;;;3.56;100.00;100574.22;5223570;28;20048;-76
2021/01/19 02:20:31;;;;;;;15.07;9.10;;;;;;;3.52;100.00;100571.72;5205307;28;20422;-77
2021/01/19 02:23:07;;;;;;;13.57;9.27;;;;;;;3.63;100.00;100563.00;5223165;28;20025;-79
2021/01/19 02:25:59;;;;;;;12.60;9.02;;;;;;;3.57;100.00;100555.28;5223200;28;20086;-78
2021/01/19 02:28:38;;;;;;;12.77;8.55;;;;;;;3.58;100.00;100555.28;5222147;28;20028;-79
2021/01/19 02:31:11;;;;;;;12.40;8.70;;;;;;;3.55;100.00;100553.59;5223004;28;20025;-78
2021/01/19 02:34:27;;;;;;;12.98;8.70;;;;;;;3.51;100.00;100551.91;5221575;28;20534;-79
2021/01/19 02:37:10;;;;;;;11.65;7.97;;;;;;;3.55;100.00;100548.44;5174925;28;20116;-79
2021/01/19 02:40:05;;;;;;;15.95;7.95;;;;;;;3.61;100.00;100546.66;5178390;28;20052;-78
2021/01/19 02:42:54;;;;;;;12.63;7.15;;;;;;;3.63;100.00;100543.19;5214947;28;20558;-80
2021/01/19 02:45:25;;;;;;;12.55;7.68;;;;;;;3.58;100.00;100542.38;5222979;28;20048;-79
2021/01/19 02:47:55;;;;;;;11.02;7.00;;;;;;;3.61;100.00;100533.75;5223359;28;20538;-78
2021/01/19 02:50:26;;;;;;;9.43;6.78;;;;;;;3.73;100.00;100525.88;5219918;28;20029;-79
2021/01/19 02:52:59;;;;;;;10.00;6.55;;;;;;;3.69;100.00;100519.88;5215343;28;20017;-76
2021/01/19 02:55:29;;;;;;;9.15;6.60;;;;;;;3.61;100.00;100524.25;5217922;28;20033;-79
2021/01/19 02:58:02;;;;;;;10.57;6.75;;;;;;;3.54;100.00;100521.72;5222501;28;20031;-78
2021/01/19 03:01:15;;;;;;;8.93;7.13;;;;;;;3.60;100.00;100519.94;5222372;28;20024;-80
2021/01/19 03:03:49;;;;;;;11.70;7.35;;;;;;;3.61;100.00;100516.50;5192401;28;20040;-78
2021/01/19 03:06:22;;;;;;;11.98;7.55;;;;;;;3.62;100.00;100513.03;5219565;28;20041;-79
2021/01/19 03:08:54;;;;;;;10.35;7.53;;;;;;;3.54;100.00;100505.38;5222204;28;20059;-79
2021/01/19 03:11:25;;;;;;;9.07;7.28;;;;;;;3.57;100.00;100497.59;5220791;28;20021;-79
2021/01/19 03:13:56;;;;;;;9.35;7.38;;;;;;;3.60;100.00;100499.28;5222440;28;20748;-78
2021/01/19 03:16:26;;;;;;;11.77;7.35;;;;;;;3.65;100.00;100502.69;5222728;28;20028;-79
2021/01/19 03:18:57;;;;;;;11.05;7.93;;;;;;;3.73;100.00;100498.31;5221981;28;20032;-78
2021/01/19 03:21:27;;;;;;;12.52;7.88;;;;;;;3.58;100.00;100494.16;5220735;28;20025;-78
2021/01/19 03:23:58;;;;;;;11.50;7.68;;;;;;;3.70;100.00;100500.94;5221099;28;20021;-78
2021/01/19 03:26:28;;;;;;;12.35;8.23;;;;;;;3.59;100.00;100497.56;5222489;28;20056;-78
2021/01/19 03:28:58;;;;;;;10.45;7.85;;;;;;;3.58;100.00;100497.59;5220844;28;20056;-79
2021/01/19 03:31:28;;;;;;;11.05;7.88;;;;;;;3.67;100.00;100495.78;5222310;28;20110;-79
2021/01/19 03:33:59;;;;;;;12.68;8.23;;;;;;;3.63;100.00;100488.91;5222163;28;20031;-80
2021/01/19 03:36:29;;;;;;;12.00;8.32;;;;;;;3.58;100.00;100482.94;5222650;28;20031;-79
2021/01/19 03:38:59;;;;;;;12.48;8.27;;;;;;;3.62;100.00;100487.22;5222422;28;20094;-79
2021/01/19 03:41:30;;;;;;;11.30;8.27;;;;;;;3.66;100.00;100482.88;5220700;28;20082;-78
2021/01/19 03:44:00;;;;;;;13.38;8.30;;;;;;;3.60;100.00;100477.78;5220858;28;20029;-78
2021/01/19 03:46:31;;;;;;;13.32;7.88;;;;;;;3.60;100.00;100478.63;5220901;28;20032;-79
2021/01/19 03:49:02;;;;;;;12.13;8.45;;;;;;;3.66;100.00;100463.06;5221911;28;20029;-79
2021/01/19 03:51:32;;;;;;;12.77;7.85;;;;;;;3.66;100.00;100462.22;5220578;28;20671;-79
2021/01/19 03:54:03;;;;;;;12.63;8.07;;;;;;;3.74;100.00;100466.44;5221826;28;20070;-80
2021/01/19 03:56:33;;;;;;;11.80;7.60;;;;;;;3.67;100.00;100462.22;5222442;28;20046;-77
2021/01/19 03:59:03;;;;;;;13.38;7.82;;;;;;;3.72;100.00;100464.72;5221634;28;20591;-79
2021/01/19 04:01:41;;;;;;;11.88;7.78;;;;;;;3.73;100.00;100449.22;5220711;28;20052;-77
2021/01/19 04:04:11;;;;;;;12.98;8.15;;;;;;;3.74;100.00;100456.09;5220701;28;20029;-79
2021/01/19 04:06:41;;;;;;;10.73;7.03;;;;;;;3.76;100.00;100448.34;5221656;28;20533;-79
2021/01/19 04:09:11;;;;;;;11.13;7.00;;;;;;;3.68;100.00;100442.38;5221715;28;20381;-77
2021/01/19 04:11:42;;;;;;;9.90;6.50;;;;;;;3.70;100.00;100438.91;5222072;28;20021;-79
2021/01/19 04:14:12;;;;;;;11.10;6.50;;;;;;;3.67;100.00;100435.50;5221133;28;20769;-80
2021/01/19 04:16:42;;;;;;;10.48;6.30;;;;;;;3.60;100.00;100426.09;5221955;28;20082;-79
2021/01/19 04:19:13;;;;;;;9.55;6.50;;;;;;;3.66;100.00;100436.38;5221708;28;20480;-80
2021/01/19 04:21:43;;;;;;;8.98;5.90;;;;;;;3.63;100.00;100433.81;5221507;28;20140;-80
2021/01/19 04:24:13;;;;;;;9.18;5.80;;;;;;;3.74;100.00;100425.09;5219721;28;20088;-78
2021/01/19 04:26:43;;;;;;;7.55;5.15;;;;;;;3.76;100.00;100423.34;5221106;28;20032;-78
2021/01/19 04:29:14;;;;;;;7.22;5.15;;;;;;;3.75;100.00;100425.97;5221509;28;20606;-76
2021/01/19 04:31:44;;;;;;;10.15;6.00;;;;;;;3.74;100.00;100409.59;5220576;28;20056;-79
2021/01/19 04:34:14;;;;;;;8.40;5.40;;;;;;;3.79;100.00;100405.22;5221527;28;20075;-78
2021/01/19 04:36:45;;;;;;;7.38;5.57;;;;;;;3.93;100.00;100407.66;5225580;28;20098;-77
2021/01/19 04:39:15;;;;;;;6.78;4.82;;;;;;;3.86;100.00;100404.28;5224161;28;20029;-78
2021/01/19 04:41:47;;;;;;;7.32;5.63;;;;;;;3.85;100.00;100407.75;5225467;28;20390;-79
2021/01/19 04:44:18;;;;;;;8.77;5.60;;;;;;;3.78;100.00;100395.75;5225235;28;20429;-79
2021/01/19 04:46:49;;;;;;;6.75;4.93;;;;;;;3.86;100.00;100385.31;5225686;28;20025;-79
2021/01/19 04:49:20;;;;;;;7.15;5.45;;;;;;;3.91;100.00;100375.78;5225261;28;20115;-78
2021/01/19 04:51:51;;;;;;;7.88;5.35;;;;;;;3.87;100.00;100361.19;5225061;28;20025;-79
2021/01/19 04:54:30;;;;;;;8.57;5.63;;;;;;;3.89;100.00;100365.47;5224880;28;20074;-80
2021/01/19 04:57:03;;;;;;;8.25;5.05;;;;;;;3.91;100.00;100352.50;5207854;28;20102;-80
2021/01/19 04:59:37;;;;;;;7.07;5.43;;;;;;;3.97;100.00;100352.44;5219245;28;20025;-80
2021/01/19 05:02:14;;;;;;;8.98;5.55;;;;;;;3.89;100.00;100346.50;5231100;28;20047;-79
2021/01/19 05:04:51;;;;;;;6.97;5.18;;;;;;;3.95;100.00;100346.47;5221365;28;20036;-79
2021/01/19 05:07:33;;;;;;;7.32;5.10;;;;;;;3.99;100.00;100340.34;5223420;28;20487;-78
2021/01/19 05:13:50;;;;;;;7.17;5.20;;;;;;;3.90;100.00;100328.41;5223489;28;20068;-78
2021/01/19 05:16:26;;;;;;;8.15;5.60;;;;;;;3.85;100.00;100314.69;5224957;28;20349;-79
2021/01/19 05:18:58;;;;;;;8.18;4.93;;;;;;;3.82;100.00;100304.38;5224195;28;20028;-80
2021/01/19 05:21:28;;;;;;;6.63;4.80;;;;;;;3.81;100.00;100302.66;5207083;28;20029;-78
2021/01/19 05:23:58;;;;;;;7.13;4.72;;;;;;;3.79;100.00;100294.09;5224147;28;20375;-79
2021/01/19 05:26:32;;;;;;;7.15;4.50;;;;;;;3.84;100.00;100281.97;5224812;28;20504;-80
2021/01/19 05:29:04;;;;;;;8.05;4.20;;;;;;;3.80;100.00;100274.28;5224157;28;20452;-79
2021/01/19 05:31:35;;;;;;;6.88;4.05;;;;;;;3.84;100.00;100281.97;5225084;28;20090;-79
2021/01/19 05:34:07;;;;;;;6.28;4.05;;;;;;;3.81;100.00;100282.00;5223478;28;20024;-79
2021/01/19 05:36:47;;;;;;;5.82;4.20;;;;;;;3.81;100.00;100278.56;5224251;28;20033;-79
2021/01/19 05:39:19;;;;;;;6.20;4.05;;;;;;;3.66;100.00;100266.72;5223508;28;20761;-80
2021/01/19 05:41:54;;;;;;;7.38;4.00;;;;;;;3.68;100.00;100270.13;5224202;28;20118;-80
2021/01/19 05:44:32;;;;;;;5.87;3.53;;;;;;;3.72;100.00;100263.19;5223659;28;20094;-79
2021/01/19 05:47:06;;;;;;;6.25;3.67;;;;;;;3.84;100.00;100261.31;5224284;28;20033;-79
2021/01/19 05:49:45;;;;;;;6.03;3.45;;;;;;;3.84;100.00;100244.94;5218733;28;20033;-79
2021/01/19 05:52:18;;;;;;;5.30;3.05;;;;;;;3.93;100.00;100243.06;5222885;28;20037;-79
2021/01/19 05:54:49;;;;;;;5.78;3.50;;;;;;;3.92;100.00;100238.78;5223304;28;20456;-79
2021/01/19 05:57:21;;;;;;;6.78;3.63;;;;;;;3.87;100.00;100229.38;5224023;28;20024;-79
2021/01/19 05:59:57;;;;;;;5.93;2.95;;;;;;;3.87;100.00;100217.31;5224084;28;20072;-80
2021/01/19 06:02:41;;;;;;;7.93;3.38;;;;;;;3.83;100.00;100222.56;5233354;28;20063;-81
2021/01/19 06:05:16;;;;;;;5.78;3.05;;;;;;;3.91;100.00;100212.94;5230159;28;20033;-80
2021/01/19 06:07:48;;;;;;;6.47;2.83;;;;;;;3.92;100.00;100206.94;5223791;28;20399;-81
2021/01/19 06:10:20;;;;;;;4.30;2.83;;;;;;;3.94;100.00;100194.84;5223246;28;20040;-80
2021/01/19 06:12:51;;;;;;;5.78;2.80;;;;;;;4.07;100.00;100199.78;5223126;28;20048;-80
2021/01/19 06:15:28;;;;;;;6.95;3.17;;;;;;;4.03;100.00;100192.97;5223061;28;20067;-80
2021/01/19 06:17:59;;;;;;;6.30;3.00;;;;;;;4.11;100.00;100191.09;5220800;28;20036;-80
2021/01/19 06:20:39;;;;;;;8.88;3.10;;;;;;;4.10;100.00;100189.38;5223584;28;20029;-80
2021/01/19 06:23:11;;;;;;;6.85;3.10;;;;;;;4.14;100.00;100180.69;5221424;28;20102;-81
2021/01/19 06:25:41;;;;;;;8.93;3.08;;;;;;;4.14;100.00;100172.94;5222289;28;20029;-80
2021/01/19 06:28:12;;;;;;;8.00;3.10;;;;;;;4.16;100.00;100166.00;5222920;28;20108;-80
2021/01/19 06:30:42;;;;;;;9.88;3.10;;;;;;;4.17;100.00;100159.13;5223171;28;20067;-81
2021/01/19 06:33:20;;;;;;;9.13;3.60;;;;;;;4.25;100.00;100160.69;5222944;28;20033;-80
2021/01/19 06:35:55;;;;;;;7.20;2.92;;;;;;;4.18;100.00;100159.09;5222705;28;20550;-80
2021/01/19 06:38:26;;;;;;;7.45;2.88;;;;;;;4.21;100.00;100150.41;5222134;28;20533;-80
2021/01/19 06:41:00;;;;;;;10.02;2.90;;;;;;;4.28;100.00;100136.53;5222102;28;20081;-80
2021/01/19 06:43:37;;;;;;;8.07;2.95;;;;;;;4.30;100.00;100129.59;5212071;28;20036;-80
2021/01/19 06:46:08;;;;;;;13.48;3.30;;;;;;;4.25;100.00;100124.50;5223281;28;20063;-80
2021/01/19 06:48:42;;;;;;;9.07;2.83;;;;;;;4.23;100.00;100118.50;5222645;28;20052;-80
2021/01/19 06:51:14;;;;;;;8.55;2.25;;;;;;;4.39;100.00;100114.75;5217810;28;20044;-80
2021/01/19 06:54:05;;;;;;;8.55;2.63;;;;;;;4.40;100.00;100113.00;5222040;28;20025;-80
2021/01/19 06:56:37;;;;;;;7.13;2.38;;;;;;;4.42;100.00;100103.47;5222540;28;20167;-80
2021/01/19 06:59:07;;;;;;;7.55;2.50;;;;;;;4.37;100.00;100102.72;5222355;28;20036;-80
2021/01/19 07:01:43;;;;;;;7.70;2.25;;;;;;;4.43;100.00;100097.47;5222477;28;20487;-80
2021/01/19 07:04:24;;;;;;;7.43;2.25;;;;;;;4.40;100.00;100103.53;5221846;28;20047;-80
2021/01/19 07:07:18;;;;;;;8.80;2.03;;;;;;;4.41;100.00;100089.72;5221565;28;20095;-81
2021/01/19 07:10:04;;;;;;;6.97;1.85;;;;;;;4.48;100.00;100078.34;5222440;28;20025;-81
2021/01/19 07:12:52;;;;;;;4.32;2.03;;;;;;;4.48;100.00;100080.94;5218223;28;20480;-81
2021/01/19 07:15:52;;;;;;;10.30;2.40;;;;;;;4.49;100.00;100072.28;5224309;28;20078;-81
2021/01/19 07:18:22;;;;;;;9.80;2.38;;;;;;;4.40;100.00;100064.72;5223373;28;20025;-82
2021/01/19 07:21:06;;;;;;;10.23;2.10;;;;;;;4.40;100.00;100056.97;5224267;28;20463;-81
2021/01/19 07:23:46;;;;;;;11.25;1.75;;;;;;;4.45;100.00;100052.56;5224042;28;20797;-81
2021/01/19 07:26:22;;;;;;;7.05;2.10;;;;;;;4.42;100.00;100039.69;5225329;28;20037;-81
2021/01/19 07:28:52;;;;;;;9.85;2.00;;;;;;;4.43;100.00;100043.97;5224119;28;20024;-81
2021/01/19 07:31:23;;;;;;;8.95;2.30;;;;;;;4.48;100.00;100038.72;5224488;28;20055;-81
2021/01/19 07:33:55;;;;;;;7.25;2.00;;;;;;;4.34;100.00;100039.00;5204544;28;20713;-81
2021/01/19 07:36:27;;;;;;;10.70;2.20;;;;;;;4.37;100.00;100026.00;5224698;28;20029;-81
2021/01/19 07:38:57;;;;;;;8.45;1.90;;;;;;;4.25;100.00;100018.47;5223388;28;20109;-81
2021/01/19 07:41:32;;;;;;;11.02;2.17;;;;;;;4.21;100.00;100014.25;5223972;28;20112;-81
2021/01/19 07:44:03;;;;;;;11.50;2.35;;;;;;;4.11;100.00;100012.69;5207478;28;20054;-81
2021/01/19 07:46:33;;;;;;;8.30;2.08;;;;;;;4.21;100.00;100010.78;5224493;28;20058;-81
2021/01/19 07:49:09;;;;;;;9.38;2.40;;;;;;;4.15;100.00;100004.00;5224609;28;20029;-81
2021/01/19 07:51:47;;;;;;;9.85;2.38;;;;;;;4.15;100.00;99992.81;5216582;28;20035;-81
2021/01/19 07:54:20;;;;;;;11.82;2.58;;;;;;;4.14;100.00;99991.13;5223879;28;20032;-81
2021/01/19 07:56:50;;;;;;;9.88;2.10;;;;;;;4.09;100.00;99982.59;5225117;28;20688;-81
2021/01/19 07:59:21;;;;;;;11.38;2.50;;;;;;;4.19;100.00;99979.81;5224660;28;20036;-81
2021/01/19 08:01:56;;;;;;;10.65;2.30;;;;;;;4.18;100.00;99972.94;5224522;28;20548;-78
2021/01/19 08:04:29;;;;;;;11.18;2.35;;;;;;;4.16;100.00;99959.16;5221929;28;20151;-79
2021/01/19 08:07:11;;;;;;;11.27;2.40;;;;;;;4.18;100.00;99952.25;5223248;28;20025;-79
2021/01/19 08:09:42;;;;;;;8.70;1.75;;;;;;;4.16;100.00;99946.22;5223909;28;20642;-79
2021/01/19 08:12:15;;;;;;;9.70;2.10;;;;;;;4.19;100.00;99932.41;5227586;28;20100;-79
2021/01/19 08:14:48;;;;;;;6.50;2.10;;;;;;;4.24;100.00;99926.25;5226885;28;20029;-79
2021/01/19 08:17:35;;;;;;;7.70;1.95;;;;;;;4.21;100.00;99920.28;5226985;28;20036;-79
2021/01/19 08:20:06;;;;;;;9.07;2.95;;;;;;;4.25;100.00;99912.44;5226917;28;20032;-81
2021/01/19 08:22:37;;;;;;;8.68;2.03;;;;;;;4.28;100.00;99912.38;5227538;28;20029;-81
2021/01/19 08:25:11;;;;;;;8.85;2.30;;;;;;;4.28;100.00;99906.38;5227143;28;20028;-81
2021/01/19 08:27:43;;;;;;;8.17;2.27;;;;;;;4.23;100.00;99897.84;5227500;28;20036;-81
2021/01/19 08:30:24;;;;;;;9.10;2.38;;;;;;;4.17;100.00;99888.50;5227632;28;20029;-81
2021/01/19 08:32:55;;;;;;;9.90;2.03;;;;;;;4.19;100.00;99891.91;5227752;28;20036;-81
2021/01/19 08:35:29;;;;;;;7.85;1.90;;;;;;;4.15;100.00;99874.72;5228082;28;20029;-81
2021/01/19 08:38:01;;;;;;;9.98;2.20;;;;;;;4.16;100.00;99880.75;5228008;28;20013;-81
2021/01/19 08:40:33;;;;;;;10.25;2.03;;;;;;;4.14;100.00;99872.19;5229491;28;20422;-81
2021/01/19 08:43:05;;;;;;;7.32;2.25;;;;;;;4.13;100.00;99871.31;5228634;28;20037;-81
2021/01/19 08:45:38;;;;;;;10.65;1.75;;;;;;;4.10;100.00;99853.31;5228663;28;20781;-81
2021/01/19 08:48:10;;;;;;;7.18;2.08;;;;;;;4.11;100.00;99859.34;5227689;28;20035;-82
2021/01/19 08:50:42;;;;;;;10.75;2.20;;;;;;;3.98;100.00;99858.72;5222897;28;20029;-81
2021/01/19 08:53:14;;;;;;;7.13;2.10;;;;;;;4.07;100.00;99853.38;5228099;28;20025;-81
2021/01/19 08:55:44;;;;;;;8.70;2.20;;;;;;;4.03;100.00;99849.16;5228508;28;20105;-81
2021/01/19 08:58:20;;;;;;;6.32;1.90;;;;;;;4.01;100.00;99845.75;5228435;28;20100;-81
2021/01/19 09:00:51;;;;;;;6.72;2.17;;;;;;;4.13;100.00;99836.88;5228388;28;20044;-81
2021/01/19 09:03:21;;;;;;;6.85;1.95;;;;;;;4.05;100.00;99825.84;5229303;28;20025;-81
2021/01/19 09:06:01;;;;;;;5.82;1.80;;;;;;;4.13;100.00;99832.56;5234245;28;20028;-81
2021/01/19 09:08:32;;;;;;;6.40;1.63;;;;;;;4.01;100.00;99827.66;5209949;28;20025;-81
2021/01/19 09:11:07;;;;;;;6.78;1.65;;;;;;;4.09;100.00;99817.16;5225643;28;20533;-81
2021/01/19 09:13:41;;;;;;;5.90;1.80;;;;;;;4.01;100.00;99814.75;5226713;28;20036;-81
2021/01/19 09:16:22;;;;;;;4.78;1.60;;;;;;;3.97;100.00;99813.09;5225798;28;20025;-81
2021/01/19 09:18:54;;;;;;;5.80;1.73;;;;;;;4.04;100.00;99800.88;5227187;28;20036;-81
2021/01/19 09:21:25;;;;;;;4.30;1.63;;;;;;;4.04;100.00;99794.00;5226841;28;20021;-81
2021/01/19 09:23:56;;;;;;;5.43;1.85;;;;;;;4.02;100.00;99800.94;5227160;28;20476;-81
2021/01/19 09:26:27;;;;;;;6.55;1.77;;;;;;;4.11;100.00;99795.53;5209440;28;20147;-81
2021/01/19 09:29:04;;;;;;;6.95;1.67;;;;;;;4.11;100.00;99792.97;5226389;28;20084;-81
2021/01/19 09:31:35;;;;;;;4.88;1.60;;;;;;;4.12;100.00;99776.56;5226688;28;20082;-81
2021/01/19 09:34:09;;;;;;;6.22;1.77;;;;;;;4.15;100.00;99792.00;5225594;28;20037;-81
2021/01/19 09:36:42;;;;;;;4.65;1.65;;;;;;;4.08;100.00;99785.28;5225965;28;20047;-81
2021/01/19 09:39:12;;;;;;;6.75;2.00;;;;;;;4.12;100.00;99784.31;5206869;28;20025;-81
2021/01/19 09:41:44;;;;;;;5.80;1.85;;;;;;;4.13;100.00;99770.50;5227270;28;20626;-81
2021/01/19 09:44:15;;;;;;;5.95;2.00;;;;;;;4.11;100.00;99769.69;5226786;28;20048;-81
2021/01/19 09:46:52;;;;;;;6.75;2.03;;;;;;;4.13;100.00;99765.34;5227018;28;20426;-81
2021/01/19 09:49:23;;;;;;;9.90;2.22;;;;;;;4.06;100.00;99766.38;5208969;28;20017;-81
2021/01/19 09:51:53;;;;;;;9.05;2.03;;;;;;;4.02;100.00;99764.75;5224250;28;20047;-79
2021/01/19 09:54:40;;;;;;;6.72;2.08;;;;;;;3.91;100.00;99760.69;5225105;28;20021;-78
2021/01/19 09:57:10;;;;;;;6.28;2.15;;;;;;;4.05;100.00;99746.59;5225467;28;20029;-78
2021/01/19 09:59:40;;;;;;;9.75;2.50;;;;;;;4.05;100.00;99751.75;5224118;28;20198;-79
2021/01/19 10:02:11;;;;;;;8.15;2.50;;;;;;;3.95;100.00;99732.16;5225715;28;20024;-79
2021/01/19 10:04:41;;;;;;;6.05;2.20;;;;;;;3.85;100.00;99733.25;5222334;28;20021;-79
2021/01/19 10:07:11;;;;;;;8.98;2.67;;;;;;;3.86;100.00;99734.97;5224573;28;20025;-79
2021/01/19 10:09:42;;;;;;;7.70;2.10;;;;;;;3.91;100.00;99729.66;5224379;28;20029;-78
2021/01/19 10:12:18;;;;;;;6.60;2.05;;;;;;;3.87;100.00;99723.75;5224725;28;20039;-78
2021/01/19 10:14:49;;;;;;;6.25;2.10;;;;;;;3.94;100.00;99717.53;5224598;28;20072;-78
2021/01/19 10:17:32;;;;;;;7.22;2.63;;;;;;;3.87;100.00;99713.41;5224035;28;20025;-78
2021/01/19 10:20:09;;;;;;;7.18;2.10;;;;;;;3.94;100.00;99714.13;5224147;28;20082;-79
2021/01/19 10:22:45;;;;;;;7.22;2.50;;;;;;;3.81;100.00;99698.00;5205211;28;20087;-78
2021/01/19 10:25:33;;;;;;;6.85;2.17;;;;;;;3.81;100.00;99692.84;5204999;28;20128;-78
2021/01/19 10:28:05;;;;;;;5.82;2.30;;;;;;;3.84;100.00;99694.53;5201046;28;20051;-78
2021/01/19 10:30:40;;;;;;;4.35;2.10;;;;;;;3.78;100.00;99692.91;5227761;28;20016;-79
2021/01/19 10:33:25;;;;;;;5.95;2.20;;;;;;;3.85;100.00;99688.47;5231759;28;20020;-81
2021/01/19 10:36:05;;;;;;;6.65;2.67;;;;;;;3.80;100.00;99680.81;5233202;28;20028;-80
2021/01/19 10:38:38;;;;;;;8.32;2.60;;;;;;;3.88;100.00;99678.06;5214844;28;20025;-80
2021/01/19 10:41:09;;;;;;;7.70;2.55;;;;;;;3.82;100.00;99679.03;5235210;28;20025;-80
2021/01/19 10:43:39;;;;;;;5.75;2.55;;;;;;;3.82;100.00;99667.88;5234331;28;20095;-80
2021/01/19 10:46:19;;;;;;;6.30;2.50;;;;;;;3.95;100.00;99664.97;5236177;28;20013;-80
2021/01/19 10:49:02;;;;;;;14.35;5.50;;;;;;;3.91;100.00;99653.00;5235836;28;20031;-80
2021/01/19 10:51:33;;;;;;;14.02;5.95;;;;;;;3.87;100.00;99642.75;5234093;28;20033;-80
2021/01/19 10:54:14;;;;;;;11.70;3.85;;;;;;;3.94;100.00;99639.16;5231958;28;20013;-80
2021/01/19 10:56:46;;;;;;;11.65;3.83;;;;;;;3.94;100.00;99637.41;5233912;28;20025;-80
2021/01/19 10:59:16;;;;;;;7.63;3.65;;;;;;;4.13;100.00;99625.75;5232953;28;20032;-79
2021/01/19 11:01:47;;;;;;;10.50;5.70;;;;;;;4.09;100.00;99631.88;5233055;28;20028;-80
2021/01/19 11:04:17;;;;;;;7.47;2.70;;;;;;;4.18;100.00;99625.63;5233049;28;20040;-79
2021/01/19 11:06:48;;;;;;;9.93;4.53;;;;;;;4.12;100.00;99618.03;5232623;28;20070;-80
2021/01/19 11:09:18;;;;;;;5.05;1.80;;;;;;;4.11;100.00;99614.59;5233567;28;20025;-79
2021/01/19 11:11:48;;;;;;;3.78;1.98;;;;;;;4.17;100.00;99618.75;5234451;28;20432;-81
2021/01/19 11:14:19;;;;;;;4.05;2.00;;;;;;;4.19;100.00;99602.34;5237879;28;20055;-80
2021/01/19 11:16:49;;;;;;;7.25;1.70;;;;;;;4.24;100.00;99609.94;5223327;28;20032;-81
2021/01/19 11:19:19;;;;;;;3.63;1.73;;;;;;;4.11;100.00;99609.41;5207917;28;20028;-80
2021/01/19 11:21:49;;;;;;;4.57;2.00;;;;;;;4.10;100.00;99597.38;5232498;28;20024;-80
2021/01/19 11:24:20;;;;;;;2.70;1.73;;;;;;;4.20;100.00;99591.09;5229595;28;20558;-80
2021/01/19 11:26:50;;;;;;;3.05;1.38;;;;;;;4.36;100.00;99579.47;5232046;28;20048;-80
2021/01/19 11:29:20;;;;;;;2.88;1.50;;;;;;;4.37;100.00;99585.47;5227940;28;20032;-81
2021/01/19 11:31:51;;;;;;;4.30;1.48;;;;;;;4.35;100.00;99582.09;5227633;28;20027;-81
2021/01/19 11:34:21;;;;;;;2.17;1.40;;;;;;;4.24;100.00;99577.19;5233753;28;20024;-81
2021/01/19 11:36:51;;;;;;;3.95;1.55;;;;;;;4.26;100.00;99577.19;5211643;28;20128;-80
2021/01/19 11:39:22;;;;;;;3.25;1.75;;;;;;;4.34;100.00;99557.97;5233798;28;20655;-80
2021/01/19 11:41:52;;;;;;;3.15;1.42;;;;;;;4.44;100.00;99558.59;5231943;28;20052;-80
2021/01/19 11:44:23;;;;;;;5.65;1.40;;;;;;;4.46;100.00;99549.88;5214097;28;20017;-80
2021/01/19 11:46:53;;;;;;;3.40;1.30;;;;;;;4.45;100.00;99552.50;5233962;28;20021;-81
2021/01/19 11:49:23;;;;;;;2.50;1.38;;;;;;;4.30;100.00;99552.94;5231899;28;20021;-81
2021/01/19 11:51:54;;;;;;;4.05;1.40;;;;;;;4.34;100.00;99545.06;5230329;28;20594;-81
2021/01/19 11:54:24;;;;;;;2.20;1.17;;;;;;;4.35;100.00;99541.56;5230544;28;20112;-80
2021/01/19 11:56:54;;;;;;;2.20;1.20;;;;;;;4.39;100.00;99527.66;5212662;28;20021;-80